createdAt,value
2018-09-15T00:00:54.928Z,7.80
2018-09-15T00:03:26.925Z,7.63
2018-09-15T00:05:58.957Z,8.00
2018-09-15T00:08:30.953Z,7.17
2018-09-15T00:11:02.974Z,7.63
2018-09-15T00:13:35.018Z,7.77
2018-09-15T00:16:07.071Z,7.40
2018-09-15T00:18:39.091Z,7.93
2018-09-15T00:21:11.106Z,9.00
2018-09-15T00:23:43.133Z,8.20
2018-09-15T00:26:15.156Z,8.70
2018-09-15T00:28:47.151Z,8.40
2018-09-15T00:31:19.193Z,8.60
2018-09-15T00:33:51.218Z,9.10
2018-09-15T00:36:23.313Z,9.97
2018-09-15T00:38:55.408Z,9.43
2018-09-15T00:41:27.466Z,9.23
2018-09-15T00:43:59.509Z,9.10
2018-09-15T00:46:31.534Z,9.93
2018-09-15T00:49:03.580Z,9.93
2018-09-15T00:51:35.558Z,11.13
2018-09-15T00:54:07.562Z,9.47
2018-09-15T00:56:39.533Z,10.70
2018-09-15T00:59:11.541Z,9.13
2018-09-15T01:01:43.535Z,9.83
2018-09-15T01:04:15.547Z,9.57
2018-09-15T01:06:47.587Z,8.87
2018-09-15T01:09:19.630Z,8.20
2018-09-15T01:11:51.665Z,8.57
2018-09-15T01:14:23.759Z,9.50
2018-09-15T01:16:55.683Z,9.00
2018-09-15T01:19:27.701Z,8.73
2018-09-15T01:21:59.731Z,8.37
2018-09-15T01:24:31.729Z,9.07
2018-09-15T01:27:03.739Z,10.50
2018-09-15T01:29:35.817Z,9.90
2018-09-15T01:32:07.826Z,11.13
2018-09-15T01:34:39.839Z,10.10
2018-09-15T01:37:11.837Z,10.80
2018-09-15T01:39:43.842Z,12.07
2018-09-15T01:42:15.816Z,12.30
2018-09-15T01:44:47.854Z,12.33
2018-09-15T01:47:19.881Z,12.17
2018-09-15T01:49:51.915Z,14.67
2018-09-15T01:52:24.007Z,12.77
2018-09-15T01:54:56.089Z,13.87
2018-09-15T01:57:28.447Z,13.43
2018-09-15T02:00:00.413Z,13.57
2018-09-15T02:02:32.418Z,14.03
2018-09-15T02:05:04.688Z,12.27
2018-09-15T02:07:37.777Z,14.30
2018-09-15T02:10:09.836Z,14.07
2018-09-15T02:12:41.923Z,14.93
2018-09-15T02:15:13.962Z,14.33
2018-09-15T02:17:46.107Z,13.40
2018-09-15T02:20:18.170Z,14.97
2018-09-15T02:22:50.307Z,15.20
2018-09-15T02:25:22.423Z,15.53
2018-09-15T02:27:54.556Z,15.47
2018-09-15T02:30:26.688Z,15.80
2018-09-15T02:32:58.796Z,14.60
2018-09-15T02:35:30.911Z,14.50
2018-09-15T02:38:02.964Z,13.77
2018-09-15T02:40:34.983Z,13.87
2018-09-15T02:43:08.499Z,13.43
2018-09-15T02:45:40.891Z,13.30
2018-09-15T02:48:12.997Z,13.37
2018-09-15T02:50:45.517Z,12.57
2018-09-15T02:53:18.511Z,12.83
2018-09-15T02:55:50.542Z,12.93
2018-09-15T02:58:22.609Z,12.90
2018-09-15T03:00:54.746Z,11.00
2018-09-15T03:03:27.002Z,12.97
2018-09-15T03:05:59.138Z,12.10
2018-09-15T03:08:31.242Z,10.10
2018-09-15T03:11:03.335Z,9.80
2018-09-15T03:13:35.404Z,9.97
2018-09-15T03:16:07.426Z,9.40
2018-09-15T03:18:39.546Z,9.80
2018-09-15T03:21:11.704Z,9.70
2018-09-15T03:23:43.839Z,8.97
2018-09-15T03:26:15.934Z,9.60
2018-09-15T03:28:47.999Z,9.67
2018-09-15T03:31:20.080Z,10.93
2018-09-15T03:33:52.174Z,9.60
2018-09-15T03:36:24.282Z,9.40
2018-09-15T03:38:56.326Z,10.07
2018-09-15T03:41:28.488Z,10.30
2018-09-15T03:44:00.488Z,11.43
2018-09-15T03:46:33.450Z,11.00
2018-09-15T03:49:05.570Z,10.57
2018-09-15T03:51:37.582Z,11.70
2018-09-15T03:54:13.714Z,11.27
2018-09-15T03:56:45.768Z,11.03
2018-09-15T03:59:17.785Z,10.90
2018-09-15T04:01:49.762Z,10.97
2018-09-15T04:04:21.794Z,11.77
2018-09-15T04:06:54.268Z,12.60
2018-09-15T04:09:26.434Z,12.60
2018-09-15T04:11:58.483Z,13.90
2018-09-15T04:14:30.715Z,13.00
2018-09-15T04:17:02.744Z,14.70
2018-09-15T04:19:34.908Z,13.80
2018-09-15T04:22:07.256Z,14.70
2018-09-15T04:24:39.332Z,14.67
2018-09-15T04:27:11.398Z,14.97
2018-09-15T04:29:43.503Z,15.03
2018-09-15T04:32:15.574Z,12.57
2018-09-15T04:34:47.630Z,14.50
2018-09-15T04:37:19.705Z,15.23
2018-09-15T04:39:51.902Z,14.83
2018-09-15T04:42:24.071Z,14.77
2018-09-15T04:44:56.139Z,15.53
2018-09-15T04:47:28.199Z,14.70
2018-09-15T04:50:00.555Z,15.30
2018-09-15T04:52:32.765Z,15.90
2018-09-15T04:55:04.813Z,15.57
2018-09-15T04:57:37.139Z,18.07
2018-09-15T05:00:09.258Z,15.00
2018-09-15T05:02:41.280Z,17.00
2018-09-15T05:05:13.289Z,14.93
2018-09-15T05:07:45.344Z,16.40
2018-09-15T05:10:17.378Z,16.03
2018-09-15T05:12:49.438Z,14.83
2018-09-15T05:15:21.446Z,15.17
2018-09-15T05:17:53.456Z,14.57
2018-09-15T05:20:25.455Z,16.13
2018-09-15T05:22:57.431Z,15.43
2018-09-15T05:25:29.485Z,14.77
2018-09-15T05:28:01.576Z,15.00
2018-09-15T05:30:34.082Z,16.10
2018-09-15T05:33:06.178Z,14.83
2018-09-15T05:35:38.258Z,13.93
2018-09-15T05:38:10.245Z,14.23
2018-09-15T05:40:42.268Z,12.97
2018-09-15T05:43:14.280Z,13.27
2018-09-15T05:45:46.309Z,12.33
2018-09-15T05:48:18.359Z,12.77
2018-09-15T05:50:50.617Z,12.67
2018-09-15T05:53:22.594Z,11.83
2018-09-15T05:55:54.610Z,11.70
2018-09-15T05:58:26.626Z,12.73
2018-09-15T06:00:58.666Z,12.40
2018-09-15T06:03:30.738Z,11.40
2018-09-15T06:06:02.827Z,11.57
2018-09-15T06:08:34.880Z,12.03
2018-09-15T06:11:07.601Z,10.93
2018-09-15T06:13:39.715Z,11.83
2018-09-15T06:16:11.733Z,11.80
2018-09-15T06:18:43.942Z,12.73
2018-09-15T06:21:16.015Z,11.90
2018-09-15T06:23:48.093Z,11.07
2018-09-15T06:26:20.217Z,11.63
2018-09-15T06:28:53.218Z,11.47
2018-09-15T06:31:25.279Z,12.13
2018-09-15T06:33:57.307Z,12.00
2018-09-15T06:36:29.370Z,11.67
2018-09-15T06:39:01.482Z,12.00
2018-09-15T06:41:33.552Z,11.77
2018-09-15T06:44:05.596Z,12.43
2018-09-15T06:46:37.618Z,12.33
2018-09-15T06:49:09.638Z,10.47
2018-09-15T06:51:41.654Z,9.53
2018-09-15T06:54:15.594Z,9.70
2018-09-15T06:56:47.614Z,8.53
2018-09-15T06:59:19.636Z,7.07
2018-09-15T07:01:51.704Z,9.17
2018-09-15T07:04:23.710Z,6.53
2018-09-15T07:06:55.771Z,7.40
2018-09-15T07:09:27.822Z,7.58
2018-09-15T07:11:59.837Z,6.53
2018-09-15T07:14:31.922Z,6.30
2018-09-15T07:17:04.005Z,6.67
2018-09-15T07:19:36.027Z,6.75
2018-09-15T07:22:08.191Z,6.50
2018-09-15T07:24:40.285Z,7.25
2018-09-15T07:27:12.322Z,6.70
2018-09-15T07:29:44.454Z,6.53
2018-09-15T07:32:16.466Z,6.35
2018-09-15T07:34:48.483Z,5.85
2018-09-15T07:37:20.566Z,7.22
2018-09-15T07:39:52.570Z,6.58
2018-09-15T07:42:24.681Z,6.95
2018-09-15T07:44:56.958Z,6.35
2018-09-15T07:47:29.253Z,6.22
2018-09-15T07:50:01.307Z,5.83
2018-09-15T07:52:33.426Z,6.20
2018-09-15T07:55:05.490Z,5.40
2018-09-15T07:57:37.598Z,12.13
2018-09-15T08:00:09.587Z,4.30
2018-09-15T08:02:41.605Z,6.42
2018-09-15T08:05:13.616Z,5.50
2018-09-15T08:07:45.654Z,4.35
2018-09-15T08:10:17.678Z,18.10
2018-09-15T08:12:49.714Z,4.40
2018-09-15T08:15:21.774Z,14.13
2018-09-15T08:17:53.794Z,4.80
2018-09-15T08:20:28.585Z,3.85
2018-09-15T08:23:01.475Z,4.17
2018-09-15T08:25:33.540Z,4.17
2018-09-15T08:28:05.614Z,4.42
2018-09-15T08:30:37.631Z,4.12
2018-09-15T08:33:09.682Z,3.85
2018-09-15T08:35:41.812Z,4.25
2018-09-15T08:38:15.581Z,4.00
2018-09-15T08:40:54.546Z,3.77
2018-09-15T08:43:26.626Z,3.00
2018-09-15T08:45:58.747Z,4.78
2018-09-15T08:48:30.758Z,3.83
2018-09-15T08:51:02.793Z,4.55
2018-09-15T08:53:34.892Z,4.55
2018-09-15T08:56:07.055Z,3.65
2018-09-15T08:58:39.103Z,6.00
2018-09-15T09:01:11.140Z,8.53
2018-09-15T09:03:43.160Z,5.67
2018-09-15T09:06:15.880Z,4.00
2018-09-15T09:08:48.346Z,3.33
2018-09-15T09:11:20.513Z,3.02
2018-09-15T09:13:52.803Z,2.60
2018-09-15T09:16:24.812Z,10.13
2018-09-15T09:18:56.863Z,6.03
2018-09-15T09:21:29.362Z,3.22
2018-09-15T09:24:01.679Z,4.00
2018-09-15T09:26:33.994Z,4.00
2018-09-15T09:29:05.935Z,4.10
2018-09-15T09:31:38.458Z,2.85
2018-09-15T09:34:11.138Z,3.33
2018-09-15T09:36:43.231Z,3.02
2018-09-15T09:39:15.415Z,2.77
2018-09-15T09:41:48.034Z,2.20
2018-09-15T09:44:20.148Z,2.30
2018-09-15T09:46:52.221Z,2.20
2018-09-15T09:49:24.214Z,3.45
2018-09-15T09:52:02.916Z,3.58
2018-09-15T09:54:34.943Z,1.65
2018-09-15T09:57:07.012Z,2.92
2018-09-15T09:59:39.100Z,2.60
2018-09-15T10:02:12.127Z,2.92
2018-09-15T10:04:44.176Z,2.37
2018-09-15T10:07:16.282Z,1.60
2018-09-15T10:09:48.327Z,1.70
2018-09-15T10:12:20.371Z,1.60
2018-09-15T10:14:52.395Z,1.65
2018-09-15T10:17:24.446Z,1.87
2018-09-15T10:19:56.487Z,1.70
2018-09-15T10:22:28.619Z,1.35
2018-09-15T10:25:00.718Z,1.72
2018-09-15T10:27:32.975Z,1.50
2018-09-15T10:30:04.986Z,1.55
2018-09-15T10:32:37.177Z,2.37
2018-09-15T10:35:09.266Z,1.98
2018-09-15T10:37:41.314Z,6.25
2018-09-15T10:40:13.382Z,3.83
2018-09-15T10:42:45.380Z,2.42
2018-09-15T10:45:17.503Z,1.45
2018-09-15T10:47:49.526Z,1.67
2018-09-15T10:50:21.604Z,1.15
2018-09-15T10:52:53.611Z,1.50
2018-09-15T10:55:25.762Z,1.55
2018-09-15T10:57:57.763Z,1.82
2018-09-15T11:00:29.909Z,1.37
2018-09-15T11:03:01.939Z,1.22
2018-09-15T11:05:35.976Z,1.52
2018-09-15T11:08:09.324Z,1.30
2018-09-15T11:10:41.361Z,1.40
2018-09-15T11:13:13.486Z,1.65
2018-09-15T11:15:45.443Z,1.90
2018-09-15T11:18:17.506Z,3.20
2018-09-15T11:20:49.511Z,1.72
2018-09-15T11:23:21.947Z,1.90
2018-09-15T11:25:54.054Z,1.87
2018-09-15T11:28:26.404Z,1.52
2018-09-15T11:30:58.603Z,1.15
2018-09-15T11:33:30.772Z,1.30
2018-09-15T11:36:02.816Z,1.80
2018-09-15T11:38:34.962Z,1.85
2018-09-15T11:41:07.062Z,1.50
2018-09-15T11:43:39.075Z,1.10
2018-09-15T11:46:12.749Z,1.65
2018-09-15T11:48:44.910Z,1.57
2018-09-15T11:51:17.070Z,1.47
2018-09-15T11:53:49.149Z,3.10
2018-09-15T11:56:21.462Z,1.27
2018-09-15T11:58:53.535Z,0.98
2018-09-15T12:01:25.706Z,0.98
2018-09-15T12:03:57.714Z,0.90
2018-09-15T12:06:29.755Z,1.32
2018-09-15T12:09:01.836Z,0.85
2018-09-15T12:11:33.897Z,1.35
2018-09-15T12:14:05.945Z,1.40
2018-09-15T12:16:37.969Z,1.00
2018-09-15T12:19:10.015Z,1.07
2018-09-15T12:21:42.221Z,1.02
2018-09-15T12:24:14.286Z,1.10
2018-09-15T12:26:46.374Z,1.22
2018-09-15T12:29:18.412Z,1.45
2018-09-15T12:31:50.413Z,1.00
2018-09-15T12:34:23.621Z,1.00
2018-09-15T12:36:56.617Z,1.20
2018-09-15T12:39:28.888Z,1.22
2018-09-15T12:42:08.057Z,1.20
2018-09-15T12:44:41.953Z,1.20
2018-09-15T12:47:14.095Z,1.40
2018-09-15T12:49:46.199Z,1.85
2018-09-15T12:52:18.223Z,1.20
2018-09-15T12:54:50.293Z,1.12
2018-09-15T12:57:22.362Z,1.05
2018-09-15T12:59:54.469Z,1.15
2018-09-15T13:02:26.624Z,1.20
2018-09-15T13:04:58.668Z,1.10
2018-09-15T13:07:30.767Z,1.17
2018-09-15T13:10:02.912Z,1.07
2018-09-15T13:12:35.038Z,1.15
2018-09-15T13:15:07.090Z,1.00
2018-09-15T13:17:39.133Z,1.00
2018-09-15T13:20:11.183Z,1.17
2018-09-15T13:22:43.372Z,0.80
2018-09-15T13:25:15.532Z,1.00
2018-09-15T13:27:47.561Z,0.80
2018-09-15T13:30:19.624Z,1.07
2018-09-15T13:32:51.684Z,1.12
2018-09-15T13:35:23.703Z,1.05
2018-09-15T13:37:55.815Z,1.00
2018-09-15T13:40:27.844Z,1.05
2018-09-15T13:42:59.894Z,1.27
2018-09-15T13:45:32.003Z,1.20
2018-09-15T13:48:04.043Z,1.35
2018-09-15T13:50:36.254Z,5.83
2018-09-15T13:53:09.310Z,2.25
2018-09-15T13:55:41.334Z,3.92
2018-09-15T13:58:13.415Z,8.60
2018-09-15T14:00:45.530Z,2.17
2018-09-15T14:03:17.555Z,1.70
2018-09-15T14:05:49.653Z,1.30
2018-09-15T14:08:21.682Z,1.87
2018-09-15T14:10:53.805Z,1.30
2018-09-15T14:13:25.842Z,1.70
2018-09-15T14:15:57.916Z,1.62
2018-09-15T14:18:29.971Z,1.20
2018-09-15T14:21:01.994Z,1.10
2018-09-15T14:23:34.070Z,1.30
2018-09-15T14:26:06.118Z,1.20
2018-09-15T14:28:38.290Z,2.45
2018-09-15T14:31:10.469Z,1.43
2018-09-15T14:33:42.592Z,1.57
2018-09-15T14:36:14.589Z,1.50
2018-09-15T14:38:46.664Z,1.97
2018-09-15T14:41:18.746Z,1.43
2018-09-15T14:43:50.815Z,1.40
2018-09-15T14:46:22.814Z,1.27
2018-09-15T14:48:54.857Z,1.87
2018-09-15T14:51:27.005Z,1.93
2018-09-15T14:53:59.056Z,3.13
2018-09-15T14:56:31.131Z,1.87
2018-09-15T14:59:03.194Z,1.40
2018-09-15T15:01:35.305Z,1.57
2018-09-15T15:04:07.349Z,1.43
2018-09-15T15:06:39.468Z,1.30
2018-09-15T15:09:11.561Z,2.50
2018-09-15T15:11:43.652Z,2.57
2018-09-15T15:14:15.889Z,2.90
2018-09-15T15:16:48.005Z,8.30
2018-09-15T15:19:20.138Z,3.90
2018-09-15T15:21:52.213Z,2.43
2018-09-15T15:24:24.324Z,2.37
2018-09-15T15:26:56.355Z,1.07
2018-09-15T15:29:28.758Z,1.40
2018-09-15T15:32:00.822Z,1.70
2018-09-15T15:34:32.959Z,1.43
2018-09-15T15:37:05.134Z,2.03
2018-09-15T15:39:37.281Z,3.07
2018-09-15T15:42:09.334Z,1.50
2018-09-15T15:44:41.419Z,3.00
2018-09-15T15:47:13.644Z,2.00
2018-09-15T15:49:46.113Z,1.50
2018-09-15T15:52:18.234Z,1.70
2018-09-15T15:54:50.438Z,1.30
2018-09-15T15:57:22.577Z,1.40
2018-09-15T15:59:54.655Z,1.33
2018-09-15T16:02:26.722Z,1.30
2018-09-15T16:04:58.805Z,1.57
2018-09-15T16:07:30.841Z,6.13
2018-09-15T16:10:02.890Z,1.30
2018-09-15T16:12:35.320Z,3.50
2018-09-15T16:15:07.511Z,2.27
2018-09-15T16:17:39.611Z,2.63
2018-09-15T16:20:11.674Z,3.03
2018-09-15T16:22:43.755Z,1.30
2018-09-15T16:25:15.778Z,1.60
2018-09-15T16:27:48.319Z,1.70
2018-09-15T16:30:20.443Z,1.60
2018-09-15T16:32:52.494Z,2.00
2018-09-15T16:35:24.501Z,1.83
2018-09-15T16:37:56.690Z,2.23
2018-09-15T16:40:28.706Z,1.80
2018-09-15T16:43:00.798Z,2.40
2018-09-15T16:45:32.866Z,3.00
2018-09-15T16:48:05.232Z,3.23
2018-09-15T16:50:37.259Z,2.97
2018-09-15T16:53:09.359Z,4.70
2018-09-15T16:55:41.814Z,7.33
2018-09-15T16:58:13.966Z,1.97
2018-09-15T17:00:46.021Z,2.73
2018-09-15T17:03:18.209Z,2.83
2018-09-15T17:05:50.355Z,1.70
2018-09-15T17:08:22.415Z,1.70
2018-09-15T17:10:54.476Z,1.60
2018-09-15T17:13:26.498Z,1.00
2018-09-15T17:15:58.657Z,1.07
2018-09-15T17:18:30.730Z,1.60
2018-09-15T17:21:02.843Z,1.23
2018-09-15T17:23:34.901Z,2.13
2018-09-15T17:26:07.046Z,1.57
2018-09-15T17:28:39.181Z,1.40
2018-09-15T17:31:11.245Z,1.57
2018-09-15T17:33:43.293Z,1.20
2018-09-15T17:36:15.337Z,2.03
2018-09-15T17:38:47.442Z,1.40
2018-09-15T17:41:19.564Z,1.70
2018-09-15T17:43:51.629Z,1.23
2018-09-15T17:46:23.677Z,1.97
2018-09-15T17:48:55.733Z,3.37
2018-09-15T17:51:27.842Z,6.00
2018-09-15T17:54:04.314Z,3.03
2018-09-15T17:56:36.382Z,5.97
2018-09-15T17:59:08.868Z,5.87
2018-09-15T18:01:41.059Z,10.20
2018-09-15T18:04:13.128Z,19.10
2018-09-15T18:06:45.158Z,5.03
2018-09-15T18:09:17.245Z,6.70
2018-09-15T18:11:49.347Z,5.13
2018-09-15T18:14:21.375Z,5.43
2018-09-15T18:16:53.446Z,6.17
2018-09-15T18:19:25.483Z,4.93
2018-09-15T18:21:57.696Z,3.20
2018-09-15T18:24:29.715Z,3.60
2018-09-15T18:27:01.790Z,3.97
2018-09-15T18:29:33.790Z,2.10
2018-09-15T18:32:05.833Z,1.93
2018-09-15T18:34:37.902Z,2.20
2018-09-15T18:37:09.963Z,2.43
2018-09-15T18:39:42.086Z,2.50
2018-09-15T18:42:14.109Z,2.70
2018-09-15T18:44:46.234Z,5.10
2018-09-15T18:47:18.295Z,1.90
2018-09-15T18:49:50.371Z,1.97
2018-09-15T18:52:22.368Z,1.60
2018-09-15T18:54:54.433Z,1.50
2018-09-15T18:57:26.502Z,1.87
2018-09-15T18:59:58.588Z,2.70
2018-09-15T19:02:30.650Z,3.03
2018-09-15T19:05:02.743Z,3.60
2018-09-15T19:07:34.764Z,1.50
2018-09-15T19:10:06.814Z,2.70
2018-09-15T19:12:38.829Z,2.40
2018-09-15T19:15:10.913Z,1.80
2018-09-15T19:17:42.934Z,1.80
2018-09-15T19:20:15.085Z,3.10
2018-09-15T19:22:47.097Z,2.00
2018-09-15T19:25:19.134Z,1.87
2018-09-15T19:27:51.155Z,1.80
2018-09-15T19:30:23.190Z,2.53
2018-09-15T19:32:55.274Z,2.10
2018-09-15T19:35:27.318Z,5.03
2018-09-15T19:37:59.346Z,2.40
2018-09-15T19:40:31.419Z,2.03
2018-09-15T19:43:03.520Z,2.03
2018-09-15T19:45:35.665Z,2.30
2018-09-15T19:48:07.954Z,1.40
2018-09-15T19:50:39.983Z,2.80
2018-09-15T19:53:12.016Z,2.23
2018-09-15T19:55:44.554Z,1.47
2018-09-15T19:58:16.583Z,1.63
2018-09-15T20:00:48.627Z,1.77
2018-09-15T20:03:20.684Z,1.53
2018-09-15T20:05:52.722Z,1.53
2018-09-15T20:08:24.811Z,1.43
2018-09-15T20:10:56.914Z,1.80
2018-09-15T20:13:28.911Z,1.90
2018-09-15T20:16:00.139Z,1.23
2018-09-15T20:18:31.493Z,1.77
2018-09-15T20:21:02.730Z,1.73
2018-09-15T20:23:34.799Z,1.33
2018-09-15T20:26:06.846Z,1.60
2018-09-15T20:28:38.924Z,1.87
2018-09-15T20:31:11.053Z,1.40
2018-09-15T20:33:43.174Z,1.20
2018-09-15T20:36:15.359Z,1.87
2018-09-15T20:38:47.518Z,4.70
2018-09-15T20:41:19.626Z,4.57
2018-09-15T20:43:52.045Z,2.03
2018-09-15T20:46:24.138Z,6.03
2018-09-15T20:48:56.305Z,3.07
2018-09-15T20:51:28.433Z,2.97
2018-09-15T20:54:00.500Z,3.53
2018-09-15T20:56:32.756Z,4.30
2018-09-15T20:59:04.866Z,3.67
2018-09-15T21:01:36.869Z,2.57
2018-09-15T21:04:08.927Z,2.13
2018-09-15T21:06:40.947Z,2.33
2018-09-15T21:09:12.984Z,2.33
2018-09-15T21:11:45.018Z,2.13
2018-09-15T21:14:17.045Z,2.20
2018-09-15T21:16:49.105Z,1.80
2018-09-15T21:19:21.111Z,2.00
2018-09-15T21:21:53.354Z,2.97
2018-09-15T21:24:25.378Z,2.83
2018-09-15T21:26:57.423Z,2.40
2018-09-15T21:29:29.434Z,1.80
2018-09-15T21:32:01.451Z,1.53
2018-09-15T21:34:33.478Z,1.93
2018-09-15T21:37:06.180Z,2.40
2018-09-15T21:39:38.645Z,3.70
2018-09-15T21:42:10.697Z,3.90
2018-09-15T21:44:42.733Z,3.03
2018-09-15T21:47:14.759Z,5.30
2018-09-15T21:49:46.826Z,2.80
2018-09-15T21:52:18.869Z,2.40
2018-09-15T21:54:50.969Z,2.90
2018-09-15T21:57:23.027Z,4.73
2018-09-15T21:59:55.110Z,3.70
2018-09-15T22:02:27.163Z,3.57
2018-09-15T22:04:59.537Z,2.77
2018-09-15T22:07:31.578Z,2.30
2018-09-15T22:10:03.705Z,2.53
2018-09-15T22:12:35.753Z,2.67
2018-09-15T22:15:16.360Z,2.20
2018-09-15T22:17:48.469Z,2.97
2018-09-15T22:20:20.513Z,3.00
2018-09-15T22:22:52.598Z,2.10
2018-09-15T22:25:24.635Z,2.00
2018-09-15T22:27:56.865Z,2.43
2018-09-15T22:30:28.897Z,2.33
2018-09-15T22:33:00.964Z,2.23
2018-09-15T22:35:32.948Z,2.50
2018-09-15T22:38:05.021Z,2.40
2018-09-15T22:40:37.041Z,2.47
2018-09-15T22:43:09.102Z,2.13
2018-09-15T22:45:41.147Z,2.50
2018-09-15T22:48:13.198Z,2.07
2018-09-15T22:50:45.329Z,1.97
2018-09-15T22:53:17.324Z,2.20
2018-09-15T22:55:49.403Z,2.40
2018-09-15T22:58:21.433Z,2.40
2018-09-15T23:00:53.575Z,2.27
2018-09-15T23:03:25.615Z,2.10
2018-09-15T23:05:57.767Z,2.13
2018-09-15T23:08:29.781Z,2.80
2018-09-15T23:11:01.834Z,2.57
2018-09-15T23:13:33.936Z,3.27
2018-09-15T23:16:06.022Z,3.30
2018-09-15T23:18:38.083Z,3.03
2018-09-15T23:21:10.111Z,2.90
2018-09-15T23:23:42.194Z,3.17
2018-09-15T23:26:14.238Z,2.97
2018-09-15T23:28:46.409Z,2.90
2018-09-15T23:31:18.414Z,2.93
2018-09-15T23:33:50.487Z,3.00
2018-09-15T23:36:22.528Z,3.13
2018-09-15T23:38:54.633Z,2.90
2018-09-15T23:41:26.677Z,2.60
2018-09-15T23:43:58.704Z,3.20
2018-09-15T23:46:30.746Z,2.93
2018-09-15T23:49:02.857Z,2.70
2018-09-15T23:51:34.868Z,2.17
2018-09-15T23:54:06.949Z,3.37
2018-09-15T23:56:38.932Z,3.30
2018-09-15T23:59:10.996Z,3.30
